Time;durP1;ratioP1;P1;durP2;ratioP2;P2;SDS_P1;SDS_P2;PMS_P1;PMS_P2;Temp;Humidity;BMP_temperature;BMP_pressure;BME280_temperature;BME280_humidity;BME280_pressure;Samples;Min_cycle;Max_cycle;Signal;HPM_P1;HPM_P2
2023/08/20 00:02:01;;;;;;;0.00;0.00;;;;;;;;;;4973080;28;20031;-87
2023/08/20 00:04:27;;;;;;;0.00;0.00;;;;;;;;;;4973608;28;20098;-84
2023/08/20 00:06:53;;;;;;;0.00;0.00;;;;;;;23.94;nan;100726.34;4974048;28;20046;-85
2023/08/20 00:09:18;;;;;;;0.00;0.00;;;;;;;23.95;nan;100717.16;4975677;28;20035;-84
2023/08/20 00:11:44;;;;;;;0.00;0.00;;;;;;;;;;4974179;28;20042;-87
2023/08/20 00:14:15;;;;;;;0.00;0.00;;;;;;;;;;4970541;28;20035;-84
2023/08/20 00:16:40;;;;;;;;;;;;;;;23.90;nan;100703.56;4955106;29;20039;-84
2023/08/20 00:19:06;;;;;;;0.00;0.00;;;;;;;;;;4955643;28;19993;-84
2023/08/20 00:21:33;;;;;;;0.00;0.00;;;;;;;23.86;nan;100708.63;4954565;29;20050;-84
2023/08/20 00:24:00;;;;;;;0.00;0.00;;;;;;;23.85;nan;100689.94;4954467;29;20090;-86
2023/08/20 00:26:27;;;;;;;0.00;0.00;;;;;;;23.85;nan;100706.16;4968106;28;20568;-84
2023/08/20 00:28:53;;;;;;;0.00;0.00;;;;;;;22.46;100.00;87210.38;4973278;28;20408;-84
2023/08/20 00:31:21;;;;;;;0.00;0.00;;;;;;;;;;4967662;28;20402;-83
2023/08/20 00:33:47;;;;;;;0.00;0.00;;;;;;;;;;4955192;28;20402;-83
2023/08/20 00:36:12;;;;;;;0.00;0.00;;;;;;;;;;4987922;28;20482;-83
2023/08/20 00:38:37;;;;;;;0.00;0.00;;;;;;;;;;4988321;28;20416;-83
2023/08/20 00:41:02;;;;;;;0.00;0.00;;;;;;;;;;4973819;28;20837;-85
2023/08/20 00:43:27;;;;;;;0.00;0.00;;;;;;;;;;4978217;28;20408;-84
2023/08/20 00:45:52;;;;;;;0.00;0.00;;;;;;;24.28;nan;100711.13;4971878;28;20031;-85
2023/08/20 00:48:18;;;;;;;0.00;0.00;;;;;;;;;;4969239;28;20035;-87
2023/08/20 00:50:43;;;;;;;0.00;0.00;;;;;;;;;;4977756;28;20089;-83
2023/08/20 00:53:11;;;;;;;0.00;0.00;;;;;;;24.21;nan;100753.69;4971898;28;20786;-86
2023/08/20 00:55:37;;;;;;;0.00;0.00;;;;;;;24.17;nan;100774.97;4972925;28;20039;-84
2023/08/20 00:58:02;;;;;;;0.00;0.00;;;;;;;24.10;nan;100789.66;4969929;28;20393;-87
2023/08/20 01:00:27;;;;;;;0.00;0.00;;;;;;;;;;4954293;28;20051;-83
2023/08/20 01:02:53;;;;;;;0.00;0.00;;;;;;;23.92;nan;100729.28;4951620;29;20062;-83
2023/08/20 01:05:19;;;;;;;;;;;;;;;23.83;nan;100733.38;4951865;29;20059;-83
2023/08/20 01:08:10;;;;;;;;;;;;;;;23.76;nan;100729.16;4967951;28;19981;-83
2023/08/20 01:11:04;;;;;;;;;;;;;;;23.69;nan;100730.06;4953102;28;19997;-83
2023/08/20 01:13:30;;;;;;;;;;;;;;;23.61;nan;100735.81;4955194;28;19925;-83
2023/08/20 01:15:55;;;;;;;;;;;;;;;23.55;nan;100739.44;4964899;28;19926;-83
2023/08/20 01:18:20;;;;;;;;;;;;;;;23.51;nan;100733.69;4971153;28;20000;-83
2023/08/20 01:20:50;;;;;;;;;;;;;;;23.43;nan;100731.31;4987807;28;19969;-83
2023/08/20 01:23:44;;;;;;;;;;;;;;;23.40;nan;100734.47;4973399;28;20030;-85
2023/08/20 01:26:15;;;;;;;;;;;;;;;23.36;nan;100729.75;4962988;28;19976;-85
2023/08/20 01:28:40;;;;;;;;;;;;;;;;;;4988216;28;20371;-84
2023/08/20 01:31:07;;;;;;;0.10;0.10;;;;;;;23.29;nan;100725.31;4970058;28;19925;-85
2023/08/20 01:33:33;;;;;;;;;;;;;;;23.27;nan;100721.19;4969266;28;20031;-84
2023/08/20 01:35:58;;;;;;;;;;;;;;;23.18;nan;100733.38;4953241;29;19926;-85
2023/08/20 01:38:23;;;;;;;;;;;;;;;23.11;nan;100731.56;4968450;28;20364;-84
2023/08/20 01:40:49;;;;;;;0.00;0.00;;;;;;;;;;4952875;29;20291;-85
2023/08/20 01:43:14;;;;;;;0.10;0.10;;;;;;;;;;4978132;28;20046;-87
2023/08/20 01:45:39;;;;;;;0.00;0.00;;;;;;;;;;4974327;28;20423;-84
2023/08/20 01:48:04;;;;;;;0.00;0.00;;;;;;;;;;4972252;28;20419;-88
2023/08/20 01:50:30;;;;;;;0.00;0.00;;;;;;;23.58;nan;100709.28;4975934;28;20444;-85
2023/08/20 01:52:55;;;;;;;0.00;0.00;;;;;;;;;;4961659;29;20094;-85
2023/08/20 01:55:21;;;;;;;0.00;0.00;;;;;;;;;;4962112;28;20414;-87
2023/08/20 01:57:46;;;;;;;0.00;0.00;;;;;;;;;;4962636;28;20405;-85
2023/08/20 02:00:12;;;;;;;0.00;0.00;;;;;;;;;;4960922;28;20807;-87
2023/08/20 02:02:37;;;;;;;0.00;0.00;;;;;;;;;;4963618;28;20475;-88
2023/08/20 02:05:02;;;;;;;0.00;0.00;;;;;;;;;;4970005;28;20046;-85
2023/08/20 02:07:28;;;;;;;0.00;0.00;;;;;;;;;;4978850;28;20407;-85
2023/08/20 02:09:53;;;;;;;0.00;0.00;;;;;;;;;;4978038;28;20400;-85
2023/08/20 02:12:18;;;;;;;0.00;0.00;;;;;;;;;;4982379;28;20400;-83
2023/08/20 02:14:43;;;;;;;0.00;0.00;;;;;;;;;;4983730;28;20408;-83
2023/08/20 02:17:08;;;;;;;0.00;0.00;;;;;;;;;;4982811;28;20400;-83
2023/08/20 02:19:33;;;;;;;0.00;0.00;;;;;;;;;;4981135;28;20043;-83
2023/08/20 02:21:59;;;;;;;0.00;0.00;;;;;;;;;;4980164;28;20451;-83
2023/08/20 02:24:24;;;;;;;0.00;0.00;;;;;;;;;;4977145;28;20392;-83
2023/08/20 02:26:49;;;;;;;0.00;0.00;;;;;;;23.72;nan;100693.69;4987629;28;20408;-83
2023/08/20 02:29:14;;;;;;;;;;;;;;;23.61;nan;100694.50;4988032;28;20086;-83
2023/08/20 02:31:40;;;;;;;0.00;0.00;;;;;;;23.50;nan;100667.28;4988319;28;19914;-83
2023/08/20 02:34:05;;;;;;;0.00;0.00;;;;;;;;;;4966059;29;20106;-83
2023/08/20 02:36:30;;;;;;;0.00;0.00;;;;;;;23.35;nan;100652.56;4974811;28;20046;-83
2023/08/20 02:38:55;;;;;;;0.00;0.00;;;;;;;;;;4978759;28;20043;-83
2023/08/20 02:41:21;;;;;;;0.00;0.00;;;;;;;;;;4986683;28;20050;-83
2023/08/20 02:43:46;;;;;;;0.00;0.00;;;;;;;23.17;nan;100704.72;4984775;28;20404;-83
2023/08/20 02:46:11;;;;;;;0.00;0.00;;;;;;;23.06;nan;100736.84;4985524;28;20061;-83
2023/08/20 02:48:37;;;;;;;0.00;0.00;;;;;;;22.95;nan;100725.97;4981962;28;20027;-83
2023/08/20 02:51:02;;;;;;;0.00;0.00;;;;;;;;;;4976656;28;20516;-83
2023/08/20 02:53:28;;;;;;;0.00;0.00;;;;;;;;;;4984766;28;20416;-83
2023/08/20 02:55:53;;;;;;;0.00;0.00;;;;;;;;;;4992975;28;20114;-82
2023/08/20 02:58:18;;;;;;;0.00;0.00;;;;;;;;;;4985401;28;20407;-83
2023/08/20 03:00:44;;;;;;;0.00;0.00;;;;;;;;;;4983535;28;20401;-82
2023/08/20 03:03:10;;;;;;;0.00;0.00;;;;;;;22.96;nan;100714.97;4985559;28;20439;-83
2023/08/20 03:05:36;;;;;;;0.00;0.00;;;;;;;;;;4987205;28;20047;-83
2023/08/20 03:08:03;;;;;;;0.00;0.00;;;;;;;22.75;nan;100692.03;4985209;28;20074;-83
2023/08/20 03:10:28;;;;;;;;;;;;;;;22.66;nan;100718.47;4984776;28;20035;-83
2023/08/20 03:12:54;;;;;;;;;;;;;;;22.58;nan;100718.78;4979082;28;19921;-83
2023/08/20 03:15:19;;;;;;;;;;;;;;;22.52;nan;100710.78;4986455;28;19975;-83
2023/08/20 03:17:44;;;;;;;;;;;;;;;22.46;nan;100704.44;4999799;28;19933;-83
2023/08/20 03:20:09;;;;;;;;;;;;;;;22.40;nan;100713.41;4978171;28;20017;-83
2023/08/20 03:22:36;;;;;;;;;;;;;;;22.33;nan;100715.34;4985948;28;19973;-83
2023/08/20 03:25:01;;;;;;;;;;;;;;;22.23;nan;100711.31;4984778;28;19914;-83
2023/08/20 03:27:26;;;;;;;;;;;;;;;22.12;nan;100713.91;5000824;28;19914;-83
2023/08/20 03:29:52;;;;;;;0.10;0.10;;;;;;;;;;4982976;28;19981;-83
2023/08/20 03:32:18;;;;;;;0.00;0.00;;;;;;;21.95;nan;100762.97;4972316;28;20094;-83
2023/08/20 03:34:43;;;;;;;;;;;;;;;21.89;nan;100719.94;4982157;28;20378;-83
2023/08/20 03:37:08;;;;;;;0.00;0.00;;;;;;;21.81;nan;100713.81;4984219;28;19998;-83
2023/08/20 03:39:33;;;;;;;0.10;0.10;;;;;;;;;;4984791;28;20167;-82
2023/08/20 03:41:58;;;;;;;0.00;0.00;;;;;;;21.73;nan;100726.72;4984588;28;20039;-83
2023/08/20 03:44:24;;;;;;;0.00;0.00;;;;;;;;;;4982889;28;20101;-83
2023/08/20 03:46:49;;;;;;;0.10;0.10;;;;;;;21.66;nan;100694.47;4984361;28;20629;-83
2023/08/20 03:49:15;;;;;;;;;;;;;;;21.61;nan;100713.16;4979029;28;20090;-83
2023/08/20 03:51:40;;;;;;;;;;;;;;;21.55;nan;100697.91;4983044;28;20539;-83
2023/08/20 03:54:06;;;;;;;0.10;0.10;;;;;;;;;;4961368;28;19940;-83
2023/08/20 03:56:31;;;;;;;0.00;0.00;;;;;;;;;;4957784;28;20035;-82
2023/08/20 03:58:56;;;;;;;0.10;0.10;;;;;;;;;;4954888;28;20697;-83
2023/08/20 04:01:21;;;;;;;0.10;0.10;;;;;;;;;;4955821;28;20027;-82
2023/08/20 04:03:48;;;;;;;0.07;0.07;;;;;;;;;;4957610;28;20298;-82
2023/08/20 04:06:13;;;;;;;0.00;0.00;;;;;;;;;;4963004;28;20311;-83
2023/08/20 04:08:39;;;;;;;0.00;0.00;;;;;;;21.29;nan;100715.84;4954869;28;20408;-82
2023/08/20 04:11:04;;;;;;;0.00;0.00;;;;;;;;;;4955630;28;20031;-83
2023/08/20 04:13:30;;;;;;;0.00;0.00;;;;;;;21.30;nan;100727.44;4954631;28;20275;-83
2023/08/20 04:15:55;;;;;;;0.03;0.03;;;;;;;21.28;nan;100714.19;4954698;28;20043;-82
2023/08/20 04:18:20;;;;;;;0.00;0.00;;;;;;;;;;4954177;28;20035;-83
2023/08/20 04:20:46;;;;;;;0.10;0.10;;;;;;;;;;4954276;28;20035;-82
2023/08/20 04:23:11;;;;;;;0.10;0.10;;;;;;;;;;4970779;28;20649;-83
2023/08/20 04:25:36;;;;;;;0.00;0.00;;;;;;;;;;4970112;28;20278;-83
2023/08/20 04:28:01;;;;;;;0.10;0.10;;;;;;;21.42;nan;100780.34;4972033;28;20030;-84
2023/08/20 04:30:27;;;;;;;0.10;0.10;;;;;;;;;;4967540;28;20063;-82
2023/08/20 04:32:52;;;;;;;0.10;0.10;;;;;;;;;;4970066;28;20134;-83
2023/08/20 04:35:17;;;;;;;0.10;0.10;;;;;;;;;;4967210;28;20521;-83
2023/08/20 04:37:42;;;;;;;0.00;0.00;;;;;;;21.65;nan;100686.63;4971098;28;20038;-83
2023/08/20 04:40:08;;;;;;;0.00;0.00;;;;;;;21.66;nan;100694.47;4969747;28;20038;-83
2023/08/20 04:42:33;;;;;;;0.00;0.00;;;;;;;21.67;nan;100673.78;4953409;28;20378;-83
2023/08/20 04:44:58;;;;;;;0.00;0.00;;;;;;;;;;4954879;28;20111;-83
2023/08/20 04:47:23;;;;;;;0.00;0.00;;;;;;;;;;4954917;28;20070;-83
2023/08/20 04:49:49;;;;;;;0.10;0.10;;;;;;;21.56;nan;100732.63;4967434;28;20511;-83
2023/08/20 04:52:14;;;;;;;0.10;0.10;;;;;;;;;;4953251;28;20039;-83
2023/08/20 04:54:39;;;;;;;0.10;0.10;;;;;;;21.47;nan;100682.00;4966013;28;20039;-83
2023/08/20 04:57:04;;;;;;;;;;;;;;;21.39;nan;100720.75;4979408;28;20097;-83
2023/08/20 04:59:30;;;;;;;0.10;0.10;;;;;;;;;;4987564;28;19914;-83
2023/08/20 05:01:55;;;;;;;0.10;0.10;;;;;;;;;;4986846;28;20101;-83
2023/08/20 05:04:20;;;;;;;0.10;0.10;;;;;;;21.30;nan;100760.53;4984806;28;20027;-83
2023/08/20 05:06:45;;;;;;;0.00;0.00;;;;;;;;;;4983800;28;20041;-83
2023/08/20 05:09:10;;;;;;;0.03;0.03;;;;;;;;;;4980707;28;20027;-83
2023/08/20 05:11:36;;;;;;;0.10;0.10;;;;;;;;;;4973817;28;20058;-83
2023/08/20 05:14:01;;;;;;;0.07;0.07;;;;;;;21.51;nan;100770.16;4981532;28;20401;-83
2023/08/20 05:16:26;;;;;;;0.00;0.00;;;;;;;21.61;nan;100762.41;4980571;28;20648;-83
2023/08/20 05:18:51;;;;;;;0.10;0.10;;;;;;;;;;4980136;28;20053;-83
2023/08/20 05:21:16;;;;;;;0.00;0.00;;;;;;;;;;4980414;28;20282;-83
2023/08/20 05:23:41;;;;;;;0.00;0.00;;;;;;;;;;4977686;28;20041;-83
2023/08/20 05:26:07;;;;;;;0.00;0.00;;;;;;;21.94;nan;100765.88;4978101;28;20404;-83
2023/08/20 05:28:33;;;;;;;0.00;0.00;;;;;;;22.05;nan;100784.00;4994814;28;20099;-83
2023/08/20 05:30:58;;;;;;;;;;;;;;;22.20;nan;100786.34;4970893;28;20081;-83
2023/08/20 05:33:24;;;;;;;0.10;0.10;;;;;;;22.30;nan;100748.97;4953004;29;19926;-83
2023/08/20 05:35:49;;;;;;;0.00;0.00;;;;;;;22.41;nan;100783.25;4953822;28;20043;-83
2023/08/20 05:38:15;;;;;;;0.00;0.00;;;;;;;22.57;nan;100819.56;4954296;28;20035;-83
2023/08/20 05:40:40;;;;;;;0.00;0.00;;;;;;;22.68;nan;100786.47;4964312;28;20038;-83
2023/08/20 05:43:06;;;;;;;0.00;0.00;;;;;;;22.73;nan;100796.56;4964802;28;20117;-83
2023/08/20 05:45:31;;;;;;;0.10;0.10;;;;;;;22.76;nan;100785.31;4971010;28;20034;-83
2023/08/20 05:47:56;;;;;;;0.00;0.00;;;;;;;22.75;nan;100799.06;4964675;28;20042;-83
2023/08/20 05:50:22;;;;;;;0.10;0.10;;;;;;;22.92;nan;100797.38;4960005;28;20027;-83
2023/08/20 05:52:48;;;;;;;0.00;0.00;;;;;;;22.99;nan;100859.38;4971496;28;20039;-83
2023/08/20 05:55:13;;;;;;;0.00;0.00;;;;;;;;;;4972875;28;20298;-83
2023/08/20 05:57:38;;;;;;;0.00;0.00;;;;;;;22.91;nan;100793.03;4971062;28;20066;-83
2023/08/20 06:00:04;;;;;;;0.00;0.00;;;;;;;;;;4964628;28;20039;-84
2023/08/20 06:02:30;;;;;;;0.00;0.00;;;;;;;23.04;nan;100786.69;4988967;28;20281;-83
2023/08/20 06:04:55;;;;;;;0.10;0.10;;;;;;;;;;4981140;28;20038;-83
2023/08/20 06:07:20;;;;;;;0.00;0.00;;;;;;;;;;4982290;28;20034;-83
2023/08/20 06:09:45;;;;;;;0.00;0.00;;;;;;;;;;4987031;28;20250;-83
2023/08/20 06:12:10;;;;;;;0.00;0.00;;;;;;;;;;4985691;28;20043;-83
2023/08/20 06:14:35;;;;;;;0.00;0.00;;;;;;;;;;4982606;28;20047;-83
2023/08/20 06:17:01;;;;;;;;;;;;;;;25.29;nan;100812.69;4975366;28;20104;-83
2023/08/20 06:19:26;;;;;;;0.00;0.00;;;;;;;;;;4984848;28;19945;-83
2023/08/20 06:21:51;;;;;;;0.00;0.00;;;;;;;25.99;nan;100806.88;4984839;28;20365;-83
2023/08/20 06:24:16;;;;;;;0.00;0.00;;;;;;;;;;4982512;28;20031;-84
2023/08/20 06:26:44;;;;;;;0.00;0.00;;;;;;;;;;4983834;28;20034;-83
2023/08/20 06:29:09;;;;;;;0.03;0.03;;;;;;;26.51;nan;100835.56;4982565;28;20035;-83
2023/08/20 06:31:34;;;;;;;0.00;0.00;;;;;;;;;;4980941;28;20053;-83
2023/08/20 06:33:59;;;;;;;0.00;0.00;;;;;;;;;;4974327;28;20306;-83
2023/08/20 06:36:25;;;;;;;0.00;0.00;;;;;;;26.46;nan;100811.09;4982504;28;20055;-83
2023/08/20 06:38:50;;;;;;;0.00;0.00;;;;;;;;;;4981933;28;20038;-83
2023/08/20 06:41:15;;;;;;;0.00;0.00;;;;;;;;;;4979482;28;20519;-83
2023/08/20 06:43:40;;;;;;;0.00;0.00;;;;;;;;;;4979661;28;20037;-83
2023/08/20 06:46:05;;;;;;;0.00;0.00;;;;;;;;;;4974893;28;20556;-83
2023/08/20 06:48:31;;;;;;;0.00;0.00;;;;;;;;;;4970554;28;20066;-83
2023/08/20 06:50:56;;;;;;;0.00;0.00;;;;;;;;;;4960510;28;20034;-83
2023/08/20 06:53:21;;;;;;;0.00;0.00;;;;;;;26.51;nan;100837.47;4958264;28;20039;-83
2023/08/20 06:55:46;;;;;;;0.00;0.00;;;;;;;;;;4955811;28;20042;-83
2023/08/20 06:58:11;;;;;;;0.00;0.00;;;;;;;27.02;nan;100847.09;4958730;28;20061;-83
2023/08/20 07:00:37;;;;;;;0.00;0.00;;;;;;;;;;4957500;28;20043;-83
2023/08/20 07:03:03;;;;;;;0.00;0.00;;;;;;;;;;4984707;28;20279;-83
2023/08/20 07:05:28;;;;;;;0.00;0.00;;;;;;;;;;4972613;28;20306;-83
2023/08/20 07:07:53;;;;;;;0.00;0.00;;;;;;;26.87;nan;100827.94;4976598;28;20552;-83
2023/08/20 07:10:19;;;;;;;0.00;0.00;;;;;;;;;;4978408;28;20030;-83
2023/08/20 07:12:44;;;;;;;0.00;0.00;;;;;;;;;;4980375;28;20039;-83
2023/08/20 07:15:09;;;;;;;0.00;0.00;;;;;;;25.79;nan;100874.25;4983381;28;20035;-83
2023/08/20 07:17:34;;;;;;;0.00;0.00;;;;;;;;;;4996135;28;20273;-83
2023/08/20 07:20:00;;;;;;;0.00;0.00;;;;;;;;;;4974317;28;20417;-83
2023/08/20 07:22:25;;;;;;;0.00;0.00;;;;;;;;;;4970835;28;20062;-83
2023/08/20 07:24:50;;;;;;;0.00;0.00;;;;;;;;;;4977477;28;20042;-83
2023/08/20 07:27:15;;;;;;;0.00;0.00;;;;;;;26.27;nan;100829.53;4977455;28;20408;-83
2023/08/20 07:29:41;;;;;;;0.00;0.00;;;;;;;26.59;nan;100840.59;4977576;28;20085;-83
2023/08/20 07:32:06;;;;;;;0.00;0.00;;;;;;;;;;4964155;28;20261;-83
2023/08/20 07:34:33;;;;;;;0.00;0.00;;;;;;;;;;4974641;28;20439;-83
2023/08/20 07:36:58;;;;;;;0.00;0.00;;;;;;;26.75;nan;100852.47;4974462;28;20465;-83
2023/08/20 07:39:23;;;;;;;0.00;0.00;;;;;;;27.36;nan;100901.25;4980748;28;20062;-83
2023/08/20 07:41:49;;;;;;;0.00;0.00;;;;;;;27.91;nan;100837.72;4980926;28;20138;-83
2023/08/20 07:44:14;;;;;;;0.00;0.00;;;;;;;;;;4980175;28;20178;-83
2023/08/20 07:46:39;;;;;;;0.00;0.00;;;;;;;;;;4980550;28;20270;-83
2023/08/20 07:49:04;;;;;;;0.00;0.00;;;;;;;29.71;nan;100869.31;4973909;28;20118;-83
2023/08/20 07:51:30;;;;;;;0.00;0.00;;;;;;;30.41;nan;100926.06;4974155;28;20524;-83
2023/08/20 07:53:55;;;;;;;0.00;0.00;;;;;;;31.01;nan;100857.94;4967135;28;20481;-83
2023/08/20 07:56:20;;;;;;;0.00;0.00;;;;;;;31.42;nan;100861.28;4965094;28;20363;-83
2023/08/20 07:58:45;;;;;;;0.00;0.00;;;;;;;31.63;nan;100872.06;4963075;28;20138;-83
2023/08/20 08:01:13;;;;;;;0.00;0.00;;;;;;;;;;4963130;28;20054;-83
2023/08/20 08:03:40;;;;;;;0.00;0.00;;;;;;;31.35;nan;100917.34;4962130;29;20035;-84
2023/08/20 08:06:05;;;;;;;0.00;0.00;;;;;;;31.30;nan;100860.78;4975767;28;20034;-83
2023/08/20 08:08:30;;;;;;;0.00;0.00;;;;;;;31.53;nan;100816.41;4975409;28;20066;-83
2023/08/20 08:10:55;;;;;;;0.00;0.00;;;;;;;;;;4980627;28;20078;-83
2023/08/20 08:13:22;;;;;;;0.00;0.00;;;;;;;32.23;nan;100872.69;4973005;28;20326;-84
2023/08/20 08:15:48;;;;;;;0.00;0.00;;;;;;;32.72;nan;100885.31;4980828;28;20444;-83
2023/08/20 08:18:13;;;;;;;0.00;0.00;;;;;;;;;;4978955;28;20209;-83
2023/08/20 08:20:38;;;;;;;0.00;0.00;;;;;;;33.37;nan;100916.84;4979162;28;20059;-84
2023/08/20 08:23:04;;;;;;;0.00;0.00;;;;;;;33.57;nan;100893.84;4978277;28;20035;-84
2023/08/20 08:25:30;;;;;;;0.00;0.00;;;;;;;33.86;nan;100901.09;4978161;28;20396;-83
2023/08/20 08:27:55;;;;;;;0.00;0.00;;;;;;;34.05;nan;100899.09;4969748;28;20062;-84
2023/08/20 08:30:20;;;;;;;0.00;0.00;;;;;;;;;;4973010;28;20027;-84
2023/08/20 08:32:45;;;;;;;0.00;0.00;;;;;;;34.81;nan;100896.91;4964073;28;20410;-84
2023/08/20 08:35:11;;;;;;;;;;;;;;;35.21;nan;100901.88;4971000;28;20046;-84
2023/08/20 08:37:36;;;;;;;;;;;;;;;35.81;nan;100898.84;4976251;28;19933;-84
2023/08/20 08:40:05;;;;;;;;;;;;;;;35.90;nan;100896.97;4979907;28;19983;-84
2023/08/20 08:42:30;;;;;;;;;;;;;;;35.72;nan;100889.72;4976329;28;19918;-84
2023/08/20 08:44:56;;;;;;;;;;;;;;;35.74;nan;100887.47;4969501;28;19929;-84
2023/08/20 08:47:21;;;;;;;;;;;;;;;35.96;nan;100885.81;4971780;28;19914;-84
2023/08/20 08:49:48;;;;;;;;;;;;;;;36.66;nan;100889.78;4977944;28;19973;-84
2023/08/20 08:52:13;;;;;;;;;;;;;;;36.86;nan;100899.41;4955541;28;19914;-84
2023/08/20 08:54:38;;;;;;;;;;;;;;;36.78;nan;100892.75;4955572;28;19978;-84
2023/08/20 08:57:04;;;;;;;;;;;;;;;36.73;nan;100895.63;4953967;28;19945;-84
2023/08/20 08:59:29;;;;;;;;;;;;;;;36.77;nan;100902.13;4967135;28;19917;-83
2023/08/20 09:01:56;;;;;;;;;;;;;;;37.08;nan;100907.56;4981040;28;19969;-84
2023/08/20 09:04:21;;;;;;;;;;;;;;;37.63;nan;100908.13;4973847;28;19998;-84
2023/08/20 09:06:51;;;;;;;;;;;;;;;37.97;nan;100919.13;4989561;28;19934;-83
2023/08/20 09:09:17;;;;;;;;;;;;;;;37.35;nan;100908.41;4966548;28;19914;-84
2023/08/20 09:11:42;;;;;;;;;;;;;;;37.32;nan;100911.81;4973668;28;20265;-84
2023/08/20 09:14:07;;;;;;;;;;;;;;;37.53;nan;100910.06;4974033;28;19925;-85
2023/08/20 09:16:32;;;;;;;;;;;;;;;37.91;nan;100903.88;4973747;28;19918;-84
2023/08/20 09:19:01;;;;;;;;;;;;;;;38.49;nan;100901.63;4988113;28;19925;-84
2023/08/20 09:21:28;;;;;;;;;;;;;;;38.87;nan;100903.53;4972719;28;19969;-84
2023/08/20 09:23:53;;;;;;;;;;;;;;;38.40;nan;100909.13;4971712;28;19935;-84
2023/08/20 09:26:18;;;;;;;;;;;;;;;38.48;nan;100907.50;4967805;28;20034;-84
2023/08/20 09:28:45;;;;;;;;;;;;;;;38.95;nan;100912.97;4969462;28;19945;-84
2023/08/20 09:31:13;;;;;;;;;;;;;;;38.92;nan;100905.34;4964637;28;19914;-84
2023/08/20 09:33:51;;;;;;;;;;;;;;;39.19;nan;100901.25;4955628;28;19914;-84
2023/08/20 09:36:16;;;;;;;;;;;;;;;39.25;nan;100903.47;4955582;28;20381;-84
2023/08/20 09:38:42;;;;;;;;;;;;;;;39.03;nan;100907.38;4968538;28;19961;-84
2023/08/20 09:41:08;;;;;;;;;;;;;;;39.27;nan;100905.91;4968451;28;19969;-84
2023/08/20 09:43:37;;;;;;;;;;;;;;;40.15;nan;100901.22;4978594;28;20522;-84
2023/08/20 09:46:03;;;;;;;;;;;;;;;40.24;nan;100909.44;4978377;28;19925;-84
2023/08/20 09:48:33;;;;;;;;;;;;;;;40.43;nan;100912.50;4975830;28;19937;-84
2023/08/20 09:51:00;;;;;;;;;;;;;;;40.61;nan;100901.97;4967047;28;19920;-85
2023/08/20 09:53:37;;;;;;;;;;;;;;;40.11;nan;100901.09;4970773;28;19962;-86
2023/08/20 09:56:17;;;;;;;;;;;;;;;40.64;nan;100901.28;4971464;28;19994;-86
2023/08/20 09:58:43;;;;;;;;;;;;;;;41.30;nan;100899.38;4965011;28;19914;-86
2023/08/20 10:01:08;;;;;;;;;;;;;;;41.61;nan;100903.47;4972749;28;19914;-85
2023/08/20 10:03:34;;;;;;;0.00;0.00;;;;;;;41.84;nan;100907.28;4972818;28;19914;-85
2023/08/20 10:06:00;;;;;;;;;;;;;;;40.82;nan;100912.97;4972052;28;20765;-86
2023/08/20 10:08:27;;;;;;;0.00;0.00;;;;;;;41.06;nan;100906.56;4971550;28;19949;-85
2023/08/20 10:10:52;;;;;;;0.00;0.00;;;;;;;41.59;nan;100898.25;4973541;28;20042;-85
2023/08/20 10:13:18;;;;;;;0.00;0.00;;;;;;;41.62;nan;100897.56;4968989;28;20031;-85
2023/08/20 10:15:43;;;;;;;0.00;0.00;;;;;;;41.99;nan;100892.63;4967891;28;20066;-86
2023/08/20 10:18:09;;;;;;;;;;;;;;;41.90;nan;100893.94;4969316;28;20039;-85
2023/08/20 10:20:34;;;;;;;;;;;;;;;41.70;nan;100882.69;4968826;28;19914;-85
2023/08/20 10:23:00;;;;;;;;;;;;;;;42.45;nan;100891.41;4988718;28;19918;-85
2023/08/20 10:25:26;;;;;;;;;;;;;;;42.59;nan;100891.72;4988251;28;19918;-86
2023/08/20 10:27:52;;;;;;;;;;;;;;;42.57;nan;100894.06;4973385;28;20000;-86
2023/08/20 10:30:20;;;;;;;;;;;;;;;42.43;nan;100891.75;4969589;28;19914;-86
2023/08/20 10:32:52;;;;;;;;;;;;;;;42.64;nan;100888.66;4964485;28;20303;-86
2023/08/20 10:35:27;;;;;;;;;;;;;;;42.90;nan;100884.53;4953300;29;19950;-86
2023/08/20 10:38:02;;;;;;;;;;;;;;;42.78;nan;100882.63;4952899;29;19970;-85
2023/08/20 10:40:46;;;;;;;;;;;;;;;43.39;nan;100876.44;4953774;28;19942;-86
2023/08/20 10:43:25;;;;;;;0.00;0.00;;;;;;;43.72;nan;100900.19;4952500;28;19914;-87
2023/08/20 10:46:13;;;;;;;0.00;0.00;;;;;;;43.67;nan;100867.03;4963349;28;20039;-86
2023/08/20 10:48:39;;;;;;;0.00;0.00;;;;;;;43.92;nan;100883.44;4963595;28;20043;-87
2023/08/20 10:51:12;;;;;;;0.00;0.00;;;;;;;43.75;nan;100884.72;4974142;28;20038;-86
2023/08/20 10:53:39;;;;;;;0.00;0.00;;;;;;;43.53;nan;100883.44;4974793;28;20043;-87
2023/08/20 10:56:17;;;;;;;0.00;0.00;;;;;;;43.15;nan;100912.91;4989499;28;20078;-86
2023/08/20 10:58:47;;;;;;;0.00;0.00;;;;;;;43.18;nan;100881.56;4974526;28;20030;-85
2023/08/20 11:01:30;;;;;;;0.00;0.00;;;;;;;43.35;nan;100872.78;4974673;28;20031;-86
2023/08/20 11:03:56;;;;;;;0.00;0.00;;;;;;;43.95;nan;100885.47;4965824;28;20047;-85
2023/08/20 11:06:21;;;;;;;0.00;0.00;;;;;;;43.63;nan;100905.19;4976636;28;20105;-85
2023/08/20 11:08:46;;;;;;;0.00;0.00;;;;;;;;;;4975508;28;20121;-86
2023/08/20 11:11:12;;;;;;;0.00;0.00;;;;;;;43.31;nan;100871.09;4974950;28;20045;-86
2023/08/20 11:13:38;;;;;;;0.00;0.00;;;;;;;43.40;nan;100925.38;4975466;28;20400;-86
2023/08/20 11:16:05;;;;;;;0.00;0.00;;;;;;;44.14;nan;100901.34;4975895;28;20183;-85
2023/08/20 11:18:32;;;;;;;0.00;0.00;;;;;;;44.60;nan;100884.56;4973222;28;20031;-86
2023/08/20 11:20:58;;;;;;;0.00;0.00;;;;;;;44.84;nan;100856.28;4967049;28;20674;-85
2023/08/20 11:23:23;;;;;;;0.00;0.00;;;;;;;44.86;nan;100875.41;4967854;28;20039;-86
2023/08/20 11:25:48;;;;;;;0.00;0.00;;;;;;;;;;4955054;28;20062;-85
2023/08/20 11:28:13;;;;;;;0.00;0.00;;;;;;;;;;4954668;28;20194;-87
2023/08/20 11:30:39;;;;;;;0.00;0.00;;;;;;;45.29;nan;100868.44;4962387;28;20377;-86
2023/08/20 11:33:05;;;;;;;0.00;0.00;;;;;;;44.99;nan;100874.00;4972107;28;20292;-85
2023/08/20 11:35:30;;;;;;;;;;;;;;;44.58;nan;100876.59;4972758;28;20325;-86
2023/08/20 11:37:56;;;;;;;;;;;;;;;43.75;nan;100868.00;4973783;28;19922;-86
2023/08/20 11:40:21;;;;;;;;;;;;;;;43.94;nan;100869.94;4961414;28;19972;-85
2023/08/20 11:42:46;;;;;;;;;;;;;;;43.95;nan;100868.75;4953582;29;20288;-86
2023/08/20 11:45:12;;;;;;;;;;;;;;;44.28;nan;100868.13;4954932;28;19914;-86
2023/08/20 11:47:40;;;;;;;;;;;;;;;43.92;nan;100861.13;4963235;28;19918;-86
2023/08/20 11:50:06;;;;;;;;;;;;;;;43.39;nan;100867.28;4960887;28;19926;-86
2023/08/20 11:52:32;;;;;;;;;;;;;;;43.12;nan;100863.53;4972573;28;20388;-86
2023/08/20 11:54:57;;;;;;;;;;;;;;;41.82;nan;100859.59;4973964;28;20392;-85
2023/08/20 11:57:22;;;;;;;;;;;;;;;40.48;nan;100859.59;4972340;28;19914;-86
2023/08/20 11:59:48;;;;;;;;;;;;;;;39.87;nan;100856.72;4974069;28;19922;-85
2023/08/20 12:02:13;;;;;;;;;;;;;;;40.03;nan;100848.56;4973253;28;20362;-86
2023/08/20 12:04:38;;;;;;;;;;;;;;;40.39;nan;100850.59;4966303;28;19914;-88
2023/08/20 12:07:13;;;;;;;;;;;;;;;40.05;nan;100840.75;4985546;28;20383;-87
2023/08/20 12:09:38;;;;;;;;;;;;;;;39.80;nan;100840.69;4969440;28;19920;-87
2023/08/20 12:12:05;;;;;;;;;;;;;;;39.28;nan;100841.97;4973462;28;20004;-86
2023/08/20 12:14:30;;;;;;;;;;;;;;;38.52;nan;100842.13;4972349;28;19936;-86
2023/08/20 12:16:55;;;;;;;;;;;;;;;37.97;nan;100835.47;4973857;28;20365;-85
2023/08/20 12:19:21;;;;;;;;;;;;;;;37.31;nan;100833.00;4987431;28;19918;-85
2023/08/20 12:21:46;;;;;;;;;;;;;;;36.96;nan;100831.00;4965498;28;20067;-85
2023/08/20 12:24:12;;;;;;;;;;;;;;;37.16;nan;100826.84;4988530;28;20029;-85
2023/08/20 12:26:37;;;;;;;;;;;;;;;36.86;nan;100823.03;4973815;28;19921;-86
2023/08/20 12:29:03;;;;;;;;;;;;;;;36.22;nan;100820.72;4985349;28;20339;-86
2023/08/20 12:31:28;;;;;;;;;;;;;;;35.48;nan;100821.22;4972514;28;19914;-85
2023/08/20 12:33:53;;;;;;;;;;;;;;;35.74;nan;100821.44;4954243;28;19917;-86
2023/08/20 12:36:18;;;;;;;;;;;;;;;35.59;nan;100813.53;4952371;28;19918;-86
2023/08/20 12:38:43;;;;;;;;;;;;;;;35.65;nan;100818.63;4953770;28;19985;-85
2023/08/20 12:41:09;;;;;;;;;;;;;;;35.41;nan;100810.66;4954133;28;19914;-86
2023/08/20 12:43:34;;;;;;;;;;;;;;;35.37;nan;100808.84;4966761;28;19918;-88
2023/08/20 12:45:59;;;;;;;;;;;;;;;35.37;nan;100811.59;4969889;28;19921;-85
2023/08/20 12:48:24;;;;;;;;;;;;;;;35.15;nan;100809.66;4976594;28;19914;-87
2023/08/20 12:50:49;;;;;;;;;;;;;;;35.07;nan;100813.94;4980533;28;19917;-85
2023/08/20 12:53:15;;;;;;;;;;;;;;;34.96;nan;100813.34;4968096;28;19924;-87
2023/08/20 12:55:40;;;;;;;;;;;;;;;34.67;nan;100811.75;4968061;28;19922;-85
2023/08/20 12:58:05;;;;;;;;;;;;;;;34.78;nan;100804.13;4976591;28;19917;-85